Time;durP1;ratioP1;P1;durP2;ratioP2;P2;SDS_P1;SDS_P2;PMS_P1;PMS_P2;Temp;Humidity;BMP_temperature;BMP_pressure;BME280_temperature;BME280_humidity;BME280_pressure;Samples;Min_cycle;Max_cycle;Signal;HPM_P1;HPM_P2
2021/04/27 00:01:21;;;;;;;2.45;1.80;;;6.50;65.10;;;;;;5031287;28;20190;-49
2021/04/27 00:03:48;;;;;;;6.00;1.83;;;5.90;64.40;;;;;;5030838;28;20200;-50
2021/04/27 00:06:15;;;;;;;21.92;10.63;;;6.00;65.00;;;;;;5031239;28;20427;-48
2021/04/27 00:08:41;;;;;;;35.43;17.70;;;5.20;64.40;;;;;;5031076;28;20213;-49
2021/04/27 00:11:09;;;;;;;9.18;4.50;;;5.70;65.40;;;;;;5031148;28;20434;-50
2021/04/27 00:13:36;;;;;;;3.40;2.13;;;5.80;65.10;;;;;;5030785;28;20200;-49
2021/04/27 00:16:03;;;;;;;2.70;1.80;;;5.80;65.60;;;;;;5031371;28;20675;-48
2021/04/27 00:18:29;;;;;;;4.43;1.90;;;5.80;65.60;;;;;;5030220;28;20209;-49
2021/04/27 00:20:56;;;;;;;2.90;1.87;;;5.90;65.80;;;;;;5031201;28;20952;-48
2021/04/27 00:23:23;;;;;;;3.23;1.97;;;5.70;65.50;;;;;;5030877;28;20838;-48
2021/04/27 00:25:49;;;;;;;3.08;1.70;;;5.70;64.80;;;;;;5031208;28;20817;-48
2021/04/27 00:28:15;;;;;;;2.63;1.87;;;5.60;65.30;;;;;;5030836;28;20282;-48
2021/04/27 00:30:42;;;;;;;4.18;1.90;;;6.00;65.30;;;;;;5030938;28;20197;-48
2021/04/27 00:33:08;;;;;;;2.22;1.70;;;5.70;65.20;;;;;;5030355;28;20334;-48
2021/04/27 00:35:35;;;;;;;5.15;2.05;;;5.60;65.10;;;;;;5030750;28;20661;-49
2021/04/27 00:38:02;;;;;;;3.53;1.80;;;5.70;65.00;;;;;;5030556;28;20227;-49
2021/04/27 00:40:31;;;;;;;4.30;2.17;;;5.70;64.40;;;;;;5030697;28;20200;-49
2021/04/27 00:42:58;;;;;;;5.38;2.13;;;5.60;64.90;;;;;;5030397;28;20475;-49
2021/04/27 00:45:26;;;;;;;3.83;1.70;;;5.70;64.30;;;;;;5030745;28;20708;-49
2021/04/27 00:47:54;;;;;;;2.57;1.90;;;5.60;64.70;;;;;;5030597;28;20236;-48
2021/04/27 00:50:23;;;;;;;3.20;1.85;;;5.60;64.10;;;;;;5030369;28;20477;-49
2021/04/27 00:52:50;;;;;;;5.53;2.30;;;5.50;63.70;;;;;;5030175;28;20208;-49
2021/04/27 00:55:17;;;;;;;3.90;2.20;;;5.50;64.00;;;;;;5030475;28;20531;-49
2021/04/27 00:57:43;;;;;;;3.47;1.95;;;5.50;64.00;;;;;;5012509;28;20228;-48
2021/04/27 01:00:12;;;;;;;3.70;2.05;;;5.60;64.20;;;;;;5012641;28;20251;-47
2021/04/27 01:02:38;;;;;;;3.20;2.10;;;5.60;64.00;;;;;;5030092;28;20208;-51
2021/04/27 01:05:07;;;;;;;3.00;2.50;;;5.30;63.90;;;;;;5012643;28;20224;-49
2021/04/27 01:07:37;;;;;;;4.65;1.77;;;5.50;64.10;;;;;;5013032;28;20247;-48
2021/04/27 01:10:08;;;;;;;2.78;1.90;;;5.30;63.20;;;;;;5013024;28;20701;-47
2021/04/27 01:12:39;;;;;;;2.30;2.08;;;5.50;63.80;;;;;;5030452;28;20315;-48
2021/04/27 01:15:09;;;;;;;4.47;2.25;;;5.60;64.10;;;;;;5012792;28;20204;-48
2021/04/27 01:17:37;;;;;;;6.70;2.70;;;5.30;63.30;;;;;;5012450;28;20224;-48
2021/04/27 01:20:08;;;;;;;3.53;2.30;;;5.50;63.80;;;;;;5012334;28;20258;-49
2021/04/27 01:23:03;;;;;;;3.95;2.50;;;5.30;63.60;;;;;;5029723;28;20271;-49
2021/04/27 01:25:35;;;;;;;3.22;2.38;;;5.90;64.10;;;;;;5030160;28;20661;-49
2021/04/27 01:28:04;;;;;;;3.33;2.67;;;5.30;63.00;;;;;;5012162;28;20721;-48
2021/04/27 01:30:32;;;;;;;4.35;2.58;;;5.40;63.60;;;;;;5015882;28;20216;-48
2021/04/27 01:32:58;;;;;;;11.20;2.22;;;5.40;63.50;;;;;;5033705;28;20204;-48
2021/04/27 01:35:25;;;;;;;5.53;2.25;;;5.10;63.50;;;;;;5016234;28;20569;-49
2021/04/27 01:38:01;;;;;;;4.03;2.25;;;5.20;63.70;;;;;;5016078;28;20369;-48
2021/04/27 01:40:29;;;;;;;4.00;2.72;;;5.00;63.40;;;;;;5033965;28;20193;-48
2021/04/27 01:42:56;;;;;;;3.33;2.15;;;4.80;63.20;;;;;;5015544;28;20204;-48
2021/04/27 01:45:26;;;;;;;3.80;1.92;;;5.00;63.00;;;;;;5034037;28;20200;-49
2021/04/27 01:47:53;;;;;;;4.35;2.22;;;5.20;63.10;;;;;;5015905;28;20353;-48
2021/04/27 01:50:20;;;;;;;3.30;2.35;;;5.10;63.60;;;;;;5015689;28;20236;-48
2021/04/27 01:53:05;;;;;;;5.45;2.65;;;5.00;63.50;;;;;;5033692;28;20211;-48
2021/04/27 01:55:31;;;;;;;4.05;2.50;;;5.10;63.70;;;;;;5015778;28;20204;-49
2021/04/27 01:57:58;;;;;;;5.70;2.58;;;5.10;63.50;;;;;;5015621;28;20221;-48
2021/04/27 02:00:25;;;;;;;2.90;2.15;;;4.80;63.20;;;;;;5034029;28;20596;-48
2021/04/27 02:02:52;;;;;;;5.72;2.25;;;5.10;63.50;;;;;;5015398;28;20220;-48
2021/04/27 02:05:33;;;;;;;3.45;1.98;;;5.10;63.50;;;;;;5033638;28;20204;-49
2021/04/27 02:08:06;;;;;;;11.00;2.83;;;4.90;62.60;;;;;;5015343;28;20697;-49
2021/04/27 02:10:35;;;;;;;4.68;2.75;;;4.70;62.80;;;;;;5015470;28;20259;-49
2021/04/27 02:13:05;;;;;;;3.75;2.20;;;4.80;62.90;;;;;;5015072;28;20220;-49
2021/04/27 02:15:34;;;;;;;3.85;2.50;;;5.30;63.40;;;;;;5014134;28;20215;-48
2021/04/27 02:18:08;;;;;;;3.60;2.47;;;4.70;62.60;;;;;;5032344;28;20322;-49
2021/04/27 02:20:35;;;;;;;5.15;2.30;;;4.90;62.80;;;;;;5015242;28;20271;-47
2021/04/27 02:23:28;;;;;;;9.63;3.58;;;4.90;62.90;;;;;;5032493;28;20203;-48
2021/04/27 02:26:00;;;;;;;4.05;2.75;;;5.00;63.00;;;;;;5015103;28;20208;-48
2021/04/27 02:28:32;;;;;;;4.07;2.78;;;4.80;62.70;;;;;;5014747;28;20642;-49
2021/04/27 02:31:00;;;;;;;3.67;2.47;;;4.80;63.10;;;;;;5032794;28;20201;-49
2021/04/27 02:33:27;;;;;;;4.28;2.55;;;4.70;63.10;;;;;;5014446;28;20625;-50
2021/04/27 02:35:53;;;;;;;7.45;3.05;;;4.70;63.00;;;;;;5014582;28;20201;-49
2021/04/27 02:38:36;;;;;;;5.90;2.60;;;4.80;63.20;;;;;;5014582;28;20347;-48
2021/04/27 02:41:03;;;;;;;5.28;2.47;;;4.80;63.40;;;;;;5013873;28;20431;-48
2021/04/27 02:43:31;;;;;;;4.65;2.83;;;4.70;63.20;;;;;;5014468;28;20200;-48
2021/04/27 02:45:58;;;;;;;5.72;3.35;;;4.50;63.20;;;;;;5032547;28;20386;-48
2021/04/27 02:48:33;;;;;;;6.53;3.10;;;4.80;63.40;;;;;;5014628;28;20482;-48
2021/04/27 02:51:10;;;;;;;5.55;2.85;;;4.70;63.60;;;;;;5014788;28;20669;-49
2021/04/27 02:54:09;;;;;;;10.45;2.58;;;4.40;63.20;;;;;;5024944;28;20205;-50
2021/04/27 02:56:38;;;;;;;4.82;2.85;;;4.50;62.80;;;;;;5014499;28;20207;-49
2021/04/27 02:59:07;;;;;;;6.43;2.72;;;4.50;63.40;;;;;;5014334;28;20342;-48
2021/04/27 03:01:34;;;;;;;7.38;2.70;;;4.60;63.40;;;;;;5032242;28;20731;-49
2021/04/27 03:04:06;;;;;;;6.82;3.10;;;4.40;63.10;;;;;;5014029;28;20222;-49
2021/04/27 03:06:52;;;;;;;4.78;2.28;;;4.60;63.40;;;;;;5013985;28;20215;-49
2021/04/27 03:09:25;;;;;;;5.18;2.60;;;4.40;63.50;;;;;;5032000;28;20300;-49
2021/04/27 03:11:51;;;;;;;5.88;3.00;;;4.50;63.60;;;;;;5014541;28;20200;-49
2021/04/27 03:14:17;;;;;;;6.35;3.20;;;4.70;63.90;;;;;;5031899;28;20252;-50
2021/04/27 03:16:46;;;;;;;7.47;2.70;;;4.40;63.70;;;;;;5014125;28;20201;-49
2021/04/27 03:19:14;;;;;;;4.60;2.40;;;4.60;63.90;;;;;;5014912;28;20200;-50
2021/04/27 03:21:48;;;;;;;7.03;3.22;;;4.50;63.80;;;;;;5014154;28;20296;-49
2021/04/27 03:24:15;;;;;;;5.50;3.60;;;4.50;63.80;;;;;;5031360;28;20255;-49
2021/04/27 03:26:41;;;;;;;6.68;3.08;;;4.50;63.80;;;;;;5013638;28;20246;-49
2021/04/27 03:29:25;;;;;;;5.30;2.80;;;4.20;63.50;;;;;;5013854;28;20682;-49
2021/04/27 03:31:59;;;;;;;4.13;2.72;;;4.60;63.50;;;;;;5013958;28;20696;-49
2021/04/27 03:34:27;;;;;;;3.92;2.97;;;4.50;63.90;;;;;;5013240;28;20291;-50
2021/04/27 03:36:53;;;;;;;6.03;2.60;;;4.50;63.70;;;;;;5013521;28;20288;-49
2021/04/27 03:39:19;;;;;;;9.00;3.45;;;4.30;63.70;;;;;;5031485;28;20197;-48
2021/04/27 03:41:46;;;;;;;6.00;3.22;;;4.40;63.80;;;;;;5013492;28;20207;-48
2021/04/27 03:44:12;;;;;;;6.43;3.15;;;4.40;63.70;;;;;;5013273;28;20197;-48
2021/04/27 03:46:41;;;;;;;6.07;3.00;;;4.50;63.40;;;;;;5013751;28;20211;-48
2021/04/27 03:49:08;;;;;;;4.03;3.03;;;4.40;63.60;;;;;;5013458;28;20243;-49
2021/04/27 03:51:35;;;;;;;5.53;2.63;;;4.30;63.60;;;;;;5031105;28;20688;-49
2021/04/27 03:54:11;;;;;;;5.00;2.60;;;4.30;63.60;;;;;;5013015;28;20673;-48
2021/04/27 03:56:40;;;;;;;5.10;2.50;;;4.20;63.10;;;;;;5013211;28;20208;-48
2021/04/27 03:59:09;;;;;;;5.35;2.80;;;4.50;63.30;;;;;;5013245;28;20221;-49
2021/04/27 04:01:36;;;;;;;4.80;2.58;;;4.00;62.90;;;;;;5013360;28;20255;-49
2021/04/27 04:04:03;;;;;;;7.30;2.97;;;4.30;63.20;;;;;;5030957;28;20292;-48
2021/04/27 04:06:30;;;;;;;6.95;3.03;;;4.30;63.30;;;;;;5030946;28;20208;-48
2021/04/27 04:09:01;;;;;;;5.68;2.75;;;4.00;63.10;;;;;;5030933;28;20253;-48
2021/04/27 04:11:32;;;;;;;6.75;3.53;;;3.60;62.50;;;;;;5031096;28;20208;-49
2021/04/27 04:13:59;;;;;;;6.68;2.97;;;3.90;62.80;;;;;;5012574;28;20627;-48
2021/04/27 04:16:29;;;;;;;8.00;2.95;;;4.20;63.20;;;;;;5030625;28;20205;-50
2021/04/27 04:18:55;;;;;;;5.45;3.47;;;4.40;63.30;;;;;;5012769;28;20699;-50
2021/04/27 04:21:23;;;;;;;8.63;4.38;;;4.60;63.20;;;;;;5012634;28;20208;-49
2021/04/27 04:23:54;;;;;;;7.15;3.40;;;4.50;63.20;;;;;;5012427;28;20204;-48
2021/04/27 04:26:22;;;;;;;5.03;2.80;;;4.30;62.90;;;;;;5012283;28;20300;-49
2021/04/27 04:29:09;;;;;;;5.38;3.70;;;4.40;62.80;;;;;;5029608;28;20240;-49
2021/04/27 04:31:38;;;;;;;5.35;2.90;;;4.30;62.70;;;;;;5012360;28;20203;-49
2021/04/27 04:34:33;;;;;;;4.93;3.10;;;4.60;62.80;;;;;;5029867;28;20232;-49
2021/04/27 04:37:18;;;;;;;5.97;3.28;;;4.70;62.90;;;;;;5053285;22;20235;-46
2021/04/27 04:40:05;;;;;;;6.72;3.90;;;4.40;62.50;;;;;;5014090;28;20216;-48
2021/04/27 04:42:51;;;;;;;11.27;3.55;;;4.40;62.20;;;;;;5012864;28;20216;-47
2021/04/27 04:45:55;;;;;;;8.65;3.95;;;3.90;62.00;;;;;;4951964;29;20660;-47
2021/04/27 04:48:40;;;;;;;10.43;3.75;;;4.70;62.10;;;;;;4955464;29;20274;-48
2021/04/27 04:51:15;;;;;;;5.97;3.85;;;4.40;62.50;;;;;;4980982;28;20200;-47
2021/04/27 04:53:50;;;;;;;6.35;3.63;;;4.40;62.40;;;;;;4994377;28;20212;-47
2021/04/27 04:56:17;;;;;;;5.80;3.72;;;4.90;62.80;;;;;;4994958;28;20251;-46
2021/04/27 04:58:44;;;;;;;7.00;3.83;;;4.50;62.20;;;;;;4994945;28;20225;-47
2021/04/27 05:01:11;;;;;;;10.57;3.42;;;4.80;61.90;;;;;;4994740;28;20579;-47
2021/04/27 05:03:38;;;;;;;9.80;3.28;;;5.00;62.70;;;;;;5013712;28;20205;-46
2021/04/27 05:06:23;;;;;;;8.38;3.47;;;5.10;62.40;;;;;;5017102;28;20419;-47
2021/04/27 05:09:11;;;;;;;8.98;3.20;;;5.20;61.60;;;;;;5017571;28;20604;-47
2021/04/27 05:11:41;;;;;;;5.63;3.55;;;5.30;61.30;;;;;;5016833;28;20685;-48
2021/04/27 05:14:41;;;;;;;6.50;2.85;;;5.50;61.80;;;;;;4945743;28;20260;-48
2021/04/27 05:17:11;;;;;;;6.47;3.30;;;5.50;61.30;;;;;;4998588;28;20293;-48
2021/04/27 05:19:38;;;;;;;6.78;3.50;;;5.90;61.60;;;;;;5016275;28;20193;-49
2021/04/27 05:22:06;;;;;;;12.55;3.47;;;6.10;60.80;;;;;;5015652;28;20212;-47
2021/04/27 05:24:33;;;;;;;4.88;2.50;;;6.20;60.50;;;;;;5015486;28;20280;-47
2021/04/27 05:27:07;;;;;;;5.80;3.65;;;6.10;60.40;;;;;;4998592;28;20306;-46
2021/04/27 05:29:33;;;;;;;4.05;2.70;;;6.40;60.20;;;;;;5015563;28;20627;-47
2021/04/27 05:32:00;;;;;;;7.80;3.60;;;6.40;59.60;;;;;;5015988;28;20212;-46
2021/04/27 05:34:26;;;;;;;10.27;5.30;;;6.50;60.20;;;;;;5016249;28;20500;-48
2021/04/27 05:36:53;;;;;;;6.25;2.95;;;6.50;59.40;;;;;;4998832;28;20514;-47
2021/04/27 05:39:19;;;;;;;5.37;2.90;;;6.80;59.50;;;;;;5016022;28;20230;-47
2021/04/27 05:41:46;;;;;;;8.40;3.10;;;6.70;59.20;;;;;;5015335;28;20441;-46
2021/04/27 05:44:12;;;;;;;9.73;3.53;;;7.00;59.30;;;;;;5015102;28;20933;-47
2021/04/27 05:46:39;;;;;;;4.53;2.80;;;6.90;58.70;;;;;;5016558;28;20766;-47
2021/04/27 05:49:06;;;;;;;9.27;3.57;;;7.30;58.80;;;;;;5016103;28;20472;-47
2021/04/27 05:51:33;;;;;;;6.17;2.70;;;7.30;58.70;;;;;;5015600;28;21033;-47
2021/04/27 05:53:59;;;;;;;6.30;3.00;;;7.40;58.30;;;;;;5015084;28;20514;-48
2021/04/27 05:56:27;;;;;;;11.07;4.23;;;7.60;58.40;;;;;;5015895;28;20429;-46
2021/04/27 05:58:53;;;;;;;5.10;3.07;;;7.60;58.00;;;;;;5016741;28;20451;-46
2021/04/27 06:01:19;;;;;;;3.40;2.50;;;7.70;57.90;;;;;;4999174;28;20449;-46
2021/04/27 06:03:46;;;;;;;3.43;2.80;;;7.30;57.30;;;;;;5016989;28;20446;-47
2021/04/27 06:06:13;;;;;;;3.93;3.10;;;7.60;57.70;;;;;;5017329;28;20451;-47
2021/04/27 06:08:39;;;;;;;4.50;2.90;;;7.80;57.40;;;;;;5016913;28;20836;-47
2021/04/27 06:11:07;;;;;;;4.90;3.03;;;7.70;57.20;;;;;;5016808;28;20527;-46
2021/04/27 06:13:34;;;;;;;8.30;2.87;;;7.60;57.00;;;;;;5016385;28;20426;-47
2021/04/27 06:16:01;;;;;;;4.00;3.30;;;7.30;57.00;;;;;;5015305;28;20473;-47
2021/04/27 06:18:27;;;;;;;4.50;2.73;;;7.80;57.30;;;;;;5015742;28;20973;-47
2021/04/27 06:20:54;;;;;;;5.80;2.90;;;7.90;56.90;;;;;;5015121;28;20585;-47
2021/04/27 06:23:21;;;;;;;5.40;2.90;;;8.10;57.20;;;;;;5014826;28;20507;-48
2021/04/27 06:25:48;;;;;;;5.97;2.80;;;8.00;56.80;;;;;;5015738;28;20532;-46
2021/04/27 06:28:14;;;;;;;5.40;3.23;;;8.20;56.70;;;;;;5016876;28;20490;-47
2021/04/27 06:30:41;;;;;;;5.77;4.17;;;8.20;56.60;;;;;;5015347;28;20481;-47
2021/04/27 06:33:07;;;;;;;3.83;2.87;;;8.30;56.30;;;;;;5015026;28;20426;-47
2021/04/27 06:35:34;;;;;;;3.60;2.53;;;8.30;56.10;;;;;;5015074;28;20437;-47
2021/04/27 06:38:00;;;;;;;6.27;3.33;;;8.50;56.30;;;;;;5014175;28;20849;-46
2021/04/27 06:40:28;;;;;;;7.30;2.73;;;8.50;55.40;;;;;;5015114;28;20581;-46
2021/04/27 06:42:54;;;;;;;4.30;3.30;;;8.30;55.50;;;;;;5014546;28;20434;-46
2021/04/27 06:45:21;;;;;;;5.10;2.77;;;8.20;55.70;;;;;;5014505;28;20447;-46
2021/04/27 06:47:48;;;;;;;5.50;2.30;;;8.40;55.70;;;;;;5014906;28;20466;-46
2021/04/27 06:50:16;;;;;;;4.50;2.50;;;8.40;55.40;;;;;;5014876;28;20556;-46
2021/04/27 06:52:43;;;;;;;3.37;2.40;;;8.30;55.00;;;;;;5015372;28;20500;-46
2021/04/27 06:55:10;;;;;;;3.20;2.00;;;8.40;55.10;;;;;;5014385;28;20498;-46
2021/04/27 06:57:38;;;;;;;4.63;2.40;;;8.60;54.70;;;;;;5014539;28;20553;-48
2021/04/27 07:00:06;;;;;;;3.20;1.90;;;8.00;54.20;;;;;;5014550;28;20867;-47
2021/04/27 07:02:32;;;;;;;3.43;2.00;;;8.40;54.30;;;;;;5014201;28;20442;-47
2021/04/27 07:04:59;;;;;;;4.07;2.57;;;8.50;53.90;;;;;;5015364;28;20601;-47
2021/04/27 07:07:26;;;;;;;3.40;2.27;;;8.60;53.50;;;;;;5014487;28;20442;-48
2021/04/27 07:09:52;;;;;;;3.50;2.40;;;8.50;52.70;;;;;;5014066;28;20474;-46
2021/04/27 07:12:21;;;;;;;2.67;1.90;;;8.60;52.80;;;;;;5013780;28;20438;-48
2021/04/27 07:14:48;;;;;;;7.37;4.50;;;8.70;53.00;;;;;;5014018;28;20600;-48
2021/04/27 07:17:15;;;;;;;4.73;2.47;;;8.50;52.30;;;;;;4997100;28;20836;-46
2021/04/27 07:19:42;;;;;;;4.07;2.30;;;8.90;52.30;;;;;;4997372;28;20459;-48
2021/04/27 07:22:08;;;;;;;4.10;2.00;;;8.90;52.20;;;;;;5014791;28;20462;-47
2021/04/27 07:24:35;;;;;;;2.73;2.20;;;8.70;52.10;;;;;;4997088;28;20677;-46
2021/04/27 07:27:02;;;;;;;5.10;2.77;;;8.60;51.60;;;;;;5013743;28;20494;-46
2021/04/27 07:29:29;;;;;;;6.70;2.33;;;8.60;51.20;;;;;;5014557;28;20509;-48
2021/04/27 07:31:57;;;;;;;4.90;2.40;;;8.90;51.80;;;;;;5015596;28;20435;-46
2021/04/27 07:34:23;;;;;;;3.30;2.60;;;8.90;51.40;;;;;;5015145;28;20448;-46
2021/04/27 07:36:50;;;;;;;4.23;2.10;;;8.80;51.20;;;;;;5013782;28;20443;-48
2021/04/27 07:39:16;;;;;;;2.93;2.00;;;8.80;51.20;;;;;;4995426;28;20521;-48
2021/04/27 07:41:44;;;;;;;2.77;1.80;;;8.50;50.80;;;;;;5014119;28;20584;-47
2021/04/27 07:44:11;;;;;;;4.10;1.83;;;8.70;50.90;;;;;;5013474;28;20462;-47
2021/04/27 07:46:37;;;;;;;3.87;2.00;;;8.80;51.40;;;;;;5013985;28;20502;-47
2021/04/27 07:49:05;;;;;;;6.10;1.90;;;8.60;51.20;;;;;;5013579;28;20555;-46
2021/04/27 07:51:33;;;;;;;2.27;1.50;;;9.10;50.90;;;;;;5014014;28;20459;-45
2021/04/27 07:53:59;;;;;;;7.53;2.43;;;8.60;50.30;;;;;;5013967;28;20430;-47
2021/04/27 07:56:29;;;;;;;3.13;1.80;;;8.80;50.30;;;;;;5013410;28;20442;-48
2021/04/27 07:58:56;;;;;;;5.00;2.07;;;8.70;50.20;;;;;;5013225;28;21021;-47
2021/04/27 08:01:23;;;;;;;5.63;2.23;;;8.90;50.10;;;;;;5013604;28;20442;-48
2021/04/27 08:03:50;;;;;;;3.03;1.87;;;8.80;49.70;;;;;;5012806;28;20443;-47
2021/04/27 08:06:17;;;;;;;4.07;1.70;;;8.70;49.70;;;;;;5013727;28;20478;-49
2021/04/27 08:08:44;;;;;;;3.80;2.10;;;9.00;49.10;;;;;;5012945;28;20505;-47
2021/04/27 08:11:11;;;;;;;3.10;1.90;;;8.90;49.30;;;;;;5013299;28;20862;-47
2021/04/27 08:13:38;;;;;;;3.37;1.90;;;9.10;49.50;;;;;;4995379;28;20568;-47
2021/04/27 08:16:05;;;;;;;4.40;1.77;;;9.00;49.40;;;;;;5014137;28;20513;-47
2021/04/27 08:18:32;;;;;;;2.00;1.50;;;8.70;48.20;;;;;;5013420;28;21005;-48
2021/04/27 08:20:59;;;;;;;5.30;2.27;;;8.90;48.60;;;;;;5013924;28;20450;-47
2021/04/27 08:23:26;;;;;;;3.77;2.70;;;8.90;48.50;;;;;;5013201;28;20492;-46
2021/04/27 08:25:53;;;;;;;3.97;2.63;;;8.90;48.30;;;;;;5013177;28;20440;-46
2021/04/27 08:28:19;;;;;;;4.00;2.00;;;9.00;48.10;;;;;;5013346;28;20499;-47
2021/04/27 08:30:46;;;;;;;6.03;3.60;;;9.00;48.00;;;;;;5012705;28;20483;-48
2021/04/27 08:33:13;;;;;;;2.23;1.80;;;9.10;47.20;;;;;;5013147;28;20433;-47
2021/04/27 08:35:40;;;;;;;4.20;1.80;;;8.90;47.50;;;;;;5011949;28;20937;-47
2021/04/27 08:38:07;;;;;;;2.93;1.40;;;9.50;46.60;;;;;;5012156;28;20225;-44
2021/04/27 08:40:34;;;;;;;3.20;1.70;;;9.60;46.70;;;;;;4995095;28;20490;-43
2021/04/27 08:43:02;;;;;;;3.30;1.83;;;9.30;47.20;;;;;;5012060;28;20537;-46
2021/04/27 08:45:28;;;;;;;2.70;1.70;;;9.60;47.10;;;;;;5012202;28;20535;-46
2021/04/27 08:47:56;;;;;;;2.43;1.60;;;9.30;46.80;;;;;;5012222;28;20814;-50
2021/04/27 08:50:23;;;;;;;2.30;1.80;;;9.70;46.80;;;;;;5012273;28;20478;-48
2021/04/27 08:52:49;;;;;;;3.10;1.40;;;9.70;47.00;;;;;;5013411;28;20947;-45
2021/04/27 08:55:16;;;;;;;4.80;1.37;;;9.40;46.30;;;;;;5014411;28;20474;-47
2021/04/27 08:57:44;;;;;;;4.67;2.03;;;9.10;45.70;;;;;;4995168;28;20537;-45
2021/04/27 09:00:14;;;;;;;4.73;2.30;;;9.50;45.60;;;;;;5012193;28;20437;-45
2021/04/27 09:02:43;;;;;;;6.63;1.87;;;9.40;46.00;;;;;;5011682;28;20443;-45
2021/04/27 09:05:20;;;;;;;3.13;1.60;;;9.40;46.30;;;;;;5014414;28;20450;-47
2021/04/27 09:07:48;;;;;;;3.83;1.80;;;9.40;44.80;;;;;;5012688;28;20961;-46
2021/04/27 09:10:16;;;;;;;5.50;2.10;;;9.70;45.40;;;;;;5012205;28;20998;-46
2021/04/27 09:12:49;;;;;;;4.43;2.00;;;9.50;45.40;;;;;;5012878;28;20917;-45
2021/04/27 09:15:34;;;;;;;2.27;1.60;;;9.60;45.30;;;;;;5013324;28;20481;-46
2021/04/27 09:18:24;;;;;;;4.03;1.70;;;9.70;44.80;;;;;;5013781;28;20551;-46
2021/04/27 09:20:52;;;;;;;7.80;2.07;;;9.50;44.70;;;;;;5012828;28;20470;-47
2021/04/27 09:23:19;;;;;;;2.80;1.97;;;9.70;45.00;;;;;;5012266;28;20472;-46
2021/04/27 09:26:19;;;;;;;4.10;2.20;;;9.50;44.50;;;;;;5013064;28;20440;-46
2021/04/27 09:28:48;;;;;;;3.77;1.50;;;8.90;44.50;;;;;;5013547;28;20462;-47
2021/04/27 09:31:23;;;;;;;15.60;1.80;;;9.50;44.50;;;;;;5012462;28;21050;-46
2021/04/27 09:33:50;;;;;;;2.70;1.80;;;9.60;44.60;;;;;;5012568;28;20477;-47
2021/04/27 09:36:20;;;;;;;3.00;2.60;;;9.60;44.50;;;;;;5013230;28;20443;-47
2021/04/27 09:38:47;;;;;;;5.30;1.80;;;9.60;44.70;;;;;;5012157;28;21054;-47
2021/04/27 09:41:13;;;;;;;6.73;1.60;;;9.80;44.90;;;;;;5013414;28;20433;-47
2021/04/27 09:43:41;;;;;;;2.53;1.40;;;9.50;44.80;;;;;;5012882;28;20780;-46
2021/04/27 09:46:13;;;;;;;4.90;1.57;;;9.70;44.30;;;;;;5012793;28;20436;-46
2021/04/27 09:48:41;;;;;;;2.87;1.80;;;9.50;44.00;;;;;;5013160;28;21037;-46
2021/04/27 09:51:20;;;;;;;4.03;1.60;;;9.80;44.10;;;;;;5015675;28;20829;-47
2021/04/27 09:53:51;;;;;;;2.63;2.40;;;10.00;43.60;;;;;;5016944;28;20436;-46
2021/04/27 09:56:39;;;;;;;2.63;1.70;;;9.90;44.20;;;;;;5017793;28;20432;-47
2021/04/27 09:59:08;;;;;;;2.97;1.57;;;9.70;44.70;;;;;;5017076;28;20452;-45
2021/04/27 10:01:36;;;;;;;4.23;1.97;;;9.70;44.10;;;;;;5015829;28;20432;-45
2021/04/27 10:04:03;;;;;;;3.63;1.90;;;10.10;43.80;;;;;;5015703;28;20432;-46
2021/04/27 10:06:30;;;;;;;3.63;2.37;;;9.90;44.10;;;;;;5015768;28;20470;-48
2021/04/27 10:08:58;;;;;;;2.23;1.70;;;10.10;43.30;;;;;;5015146;28;20547;-47
2021/04/27 10:11:27;;;;;;;2.80;1.60;;;10.20;43.40;;;;;;5015288;28;20475;-47
2021/04/27 10:13:54;;;;;;;3.50;2.10;;;10.10;43.10;;;;;;5016095;28;20494;-46
2021/04/27 10:16:21;;;;;;;3.73;1.53;;;10.00;42.60;;;;;;5014760;28;20448;-47
2021/04/27 10:18:48;;;;;;;3.77;1.80;;;10.00;41.70;;;;;;5015030;28;20459;-48
2021/04/27 10:21:15;;;;;;;2.60;1.83;;;10.20;42.60;;;;;;5014420;28;20802;-45
2021/04/27 10:23:46;;;;;;;5.40;2.07;;;10.20;42.20;;;;;;5013893;28;20451;-47
2021/04/27 10:26:13;;;;;;;2.97;1.50;;;10.20;42.30;;;;;;5014781;28;20472;-45
2021/04/27 10:29:01;;;;;;;3.40;2.00;;;10.10;42.20;;;;;;5014318;28;20474;-47
2021/04/27 10:31:30;;;;;;;3.00;1.60;;;10.20;42.60;;;;;;5014169;28;20537;-47
2021/04/27 10:34:00;;;;;;;4.83;2.00;;;10.20;42.50;;;;;;5013889;28;20498;-46
2021/04/27 10:36:27;;;;;;;2.70;1.40;;;10.10;42.40;;;;;;5014449;28;20467;-46
2021/04/27 10:38:59;;;;;;;2.00;1.40;;;10.30;41.30;;;;;;5014789;28;20499;-48
2021/04/27 10:41:44;;;;;;;2.07;1.33;;;9.90;41.00;;;;;;5014411;28;20439;-45
2021/04/27 10:44:11;;;;;;;4.80;1.80;;;10.30;40.50;;;;;;4988940;28;20961;-47
2021/04/27 10:47:02;;;;;;;2.67;1.80;;;10.20;40.30;;;;;;5013698;28;20539;-48
2021/04/27 10:49:32;;;;;;;2.10;1.47;;;10.30;40.20;;;;;;5012819;28;20818;-46
2021/04/27 10:52:00;;;;;;;2.60;1.60;;;10.30;40.40;;;;;;5014438;28;20444;-47
2021/04/27 10:54:34;;;;;;;3.87;2.27;;;9.90;41.00;;;;;;5013686;28;20447;-46
2021/04/27 10:57:18;;;;;;;3.17;1.87;;;10.40;41.10;;;;;;5013738;28;20756;-47
2021/04/27 10:59:56;;;;;;;2.93;1.67;;;10.70;41.20;;;;;;5013172;28;20838;-46
2021/04/27 11:02:26;;;;;;;4.80;1.70;;;10.20;40.90;;;;;;5012699;28;20440;-45
2021/04/27 11:05:01;;;;;;;2.93;2.00;;;10.30;41.30;;;;;;5013766;28;20461;-46
2021/04/27 11:07:36;;;;;;;5.67;2.17;;;10.40;41.40;;;;;;5013729;28;20544;-46
2021/04/27 11:10:30;;;;;;;4.60;1.93;;;10.40;41.50;;;;;;5013699;28;20476;-47
2021/04/27 11:13:05;;;;;;;3.37;2.00;;;10.70;41.70;;;;;;5013016;28;20456;-46
2021/04/27 11:15:32;;;;;;;2.63;1.90;;;10.50;41.90;;;;;;5013733;28;20843;-46
2021/04/27 11:18:04;;;;;;;2.57;2.10;;;10.70;41.90;;;;;;5013965;28;20460;-48
2021/04/27 11:20:52;;;;;;;4.47;2.80;;;10.50;41.90;;;;;;5013923;28;20433;-46
2021/04/27 11:23:40;;;;;;;2.47;1.60;;;10.60;42.70;;;;;;5014528;28;20450;-47
2021/04/27 11:26:51;;;;;;;4.40;2.07;;;10.50;42.10;;;;;;5013246;28;20756;-46
2021/04/27 11:29:20;;;;;;;3.80;1.93;;;10.60;42.80;;;;;;5012965;28;20456;-46
2021/04/27 11:32:13;;;;;;;5.93;2.30;;;10.60;42.70;;;;;;5013392;28;20593;-47
2021/04/27 11:34:54;;;;;;;4.77;3.23;;;11.10;42.80;;;;;;5014643;28;20433;-47
2021/04/27 11:37:24;;;;;;;9.37;2.47;;;10.80;43.10;;;;;;5012484;28;20428;-48
2021/04/27 11:39:51;;;;;;;3.97;2.20;;;10.60;43.00;;;;;;4996046;28;20449;-45
2021/04/27 11:42:29;;;;;;;6.10;2.10;;;10.70;42.40;;;;;;5013271;28;20425;-47
2021/04/27 11:44:59;;;;;;;4.47;2.00;;;10.70;42.70;;;;;;5013373;28;20967;-46
2021/04/27 11:47:31;;;;;;;1.97;1.77;;;10.80;42.60;;;;;;5013602;28;20421;-47
2021/04/27 11:50:01;;;;;;;4.00;2.37;;;10.80;42.60;;;;;;5014728;28;20472;-46
2021/04/27 11:52:51;;;;;;;4.20;2.27;;;10.70;42.10;;;;;;5013242;28;20464;-47
2021/04/27 11:55:28;;;;;;;4.03;1.87;;;10.90;42.10;;;;;;5013693;28;20536;-44
2021/04/27 11:58:01;;;;;;;3.20;1.70;;;11.10;42.20;;;;;;5013675;28;20975;-47
2021/04/27 12:00:39;;;;;;;4.83;2.00;;;10.70;41.30;;;;;;5014018;28;20859;-47
2021/04/27 12:03:17;;;;;;;2.40;1.70;;;10.90;42.10;;;;;;5014638;28;20540;-48
2021/04/27 12:05:45;;;;;;;6.90;2.50;;;11.00;41.90;;;;;;5012290;28;20459;-47
2021/04/27 12:08:20;;;;;;;3.43;1.77;;;10.70;41.80;;;;;;5012445;28;20541;-46
2021/04/27 12:10:48;;;;;;;3.20;2.30;;;10.90;42.20;;;;;;5013153;28;20483;-50
2021/04/27 12:13:20;;;;;;;6.10;2.63;;;11.20;42.30;;;;;;5012674;28;20516;-49
2021/04/27 12:16:03;;;;;;;2.43;2.13;;;11.00;42.10;;;;;;5012666;28;20444;-45
2021/04/27 12:18:29;;;;;;;10.93;2.70;;;11.00;42.20;;;;;;5012253;28;20492;-47
2021/04/27 12:20:56;;;;;;;4.40;2.23;;;11.20;41.90;;;;;;5013653;28;20428;-47
2021/04/27 12:23:24;;;;;;;4.97;2.13;;;11.30;41.70;;;;;;4995200;28;20440;-47
2021/04/27 12:25:50;;;;;;;4.93;2.63;;;11.40;42.60;;;;;;5012838;28;20470;-47
2021/04/27 12:28:17;;;;;;;4.70;2.83;;;11.10;41.50;;;;;;5012079;28;20475;-46
2021/04/27 12:30:46;;;;;;;3.40;2.30;;;11.20;41.20;;;;;;5011493;28;21079;-46
2021/04/27 12:33:16;;;;;;;3.90;2.03;;;11.10;41.40;;;;;;5012450;28;20830;-46
2021/04/27 12:35:42;;;;;;;4.90;2.40;;;11.20;41.40;;;;;;5012528;28;20793;-48
2021/04/27 12:38:11;;;;;;;6.97;2.00;;;11.40;41.20;;;;;;4993978;28;20472;-46
2021/04/27 12:40:40;;;;;;;4.47;2.17;;;11.20;41.20;;;;;;5011957;28;20937;-47
2021/04/27 12:43:09;;;;;;;4.30;2.50;;;11.30;41.50;;;;;;5011251;28;20795;-48
2021/04/27 12:45:44;;;;;;;3.37;2.23;;;11.20;41.30;;;;;;5011427;28;20466;-46
2021/04/27 12:48:11;;;;;;;5.93;2.53;;;11.80;41.80;;;;;;4995145;28;20480;-47
2021/04/27 12:50:46;;;;;;;3.23;2.20;;;11.50;41.20;;;;;;5012269;28;20502;-47
2021/04/27 12:53:12;;;;;;;11.63;6.97;;;11.40;40.70;;;;;;5012102;28;20436;-46
2021/04/27 12:55:48;;;;;;;4.00;2.30;;;11.80;41.10;;;;;;5013131;28;20516;-47
2021/04/27 12:58:17;;;;;;;3.47;2.40;;;11.50;40.80;;;;;;5012562;28;20452;-47
2021/04/27 13:00:57;;;;;;;4.13;2.13;;;11.40;40.80;;;;;;5012005;28;20464;-47
2021/04/27 13:03:26;;;;;;;3.63;2.33;;;11.60;41.20;;;;;;5011438;28;20792;-47
2021/04/27 13:05:55;;;;;;;6.80;2.00;;;11.50;41.40;;;;;;5012270;28;20645;-49
2021/04/27 13:08:26;;;;;;;3.80;2.77;;;11.40;41.30;;;;;;5012754;28;20775;-49
2021/04/27 13:11:00;;;;;;;4.53;2.23;;;11.30;41.00;;;;;;5012393;28;20480;-48
2021/04/27 13:13:26;;;;;;;8.30;2.10;;;11.60;41.10;;;;;;5011825;28;20440;-49